createdAt,value
2022-10-22T00:01:00.242Z,17.22
2022-10-22T00:03:26.691Z,17.23
2022-10-22T00:05:53.031Z,17.23
2022-10-22T00:08:19.618Z,17.25
2022-10-22T00:10:46.048Z,17.19
2022-10-22T00:13:13.303Z,17.25
2022-10-22T00:15:39.720Z,17.26
2022-10-22T00:18:06.239Z,17.21
2022-10-22T00:20:32.588Z,17.21
2022-10-22T00:22:59.326Z,17.25
2022-10-22T00:25:25.788Z,17.22
2022-10-22T00:27:52.430Z,17.26
2022-10-22T00:30:19.006Z,17.22
2022-10-22T00:32:45.605Z,17.19
2022-10-22T00:35:11.973Z,17.26
2022-10-22T00:37:38.404Z,17.23
2022-10-22T00:40:05.955Z,17.26
2022-10-22T00:42:32.365Z,17.21
2022-10-22T00:45:08.348Z,17.23
2022-10-22T00:47:58.327Z,17.22
2022-10-22T00:50:31.700Z,17.25
2022-10-22T00:52:58.949Z,17.29
2022-10-22T00:55:27.028Z,17.27
2022-10-22T00:57:55.634Z,17.29
2022-10-22T01:00:22.409Z,17.26
2022-10-22T01:02:50.701Z,17.29
2022-10-22T01:05:18.136Z,17.28
2022-10-22T01:07:51.404Z,17.26
2022-10-22T01:10:44.275Z,17.32
2022-10-22T01:13:23.254Z,17.28
2022-10-22T01:16:11.070Z,17.28
2022-10-22T01:18:59.020Z,17.25
2022-10-22T01:21:36.734Z,17.19
2022-10-22T01:24:25.882Z,17.19
2022-10-22T01:27:12.492Z,17.19
2022-10-22T01:29:52.679Z,17.13
2022-10-22T01:32:21.298Z,17.21
2022-10-22T01:34:53.946Z,17.04
2022-10-22T01:37:23.632Z,16.90
2022-10-22T01:39:51.728Z,16.88
2022-10-22T01:42:18.111Z,16.83
2022-10-22T01:44:44.600Z,16.76
2022-10-22T01:47:22.077Z,16.73
2022-10-22T01:50:10.474Z,16.68
2022-10-22T01:53:15.229Z,16.59
2022-10-22T01:55:55.352Z,16.48
2022-10-22T01:58:36.700Z,16.39
2022-10-22T02:01:12.804Z,16.32
2022-10-22T02:03:48.108Z,16.21
2022-10-22T02:06:19.270Z,16.17
2022-10-22T02:08:48.545Z,16.11
2022-10-22T02:11:15.845Z,16.04
2022-10-22T02:13:53.262Z,16.01
2022-10-22T02:16:28.355Z,15.91
2022-10-22T02:18:58.674Z,15.88
2022-10-22T02:21:26.464Z,15.77
2022-10-22T02:23:52.979Z,15.74
2022-10-22T02:26:32.060Z,15.66
2022-10-22T02:29:00.924Z,15.59
2022-10-22T02:31:34.127Z,15.56
2022-10-22T02:34:08.051Z,15.47
2022-10-22T02:36:35.575Z,15.43
2022-10-22T02:39:02.925Z,15.33
2022-10-22T02:41:29.799Z,15.26
2022-10-22T02:43:56.325Z,15.17
2022-10-22T02:46:24.327Z,15.17
2022-10-22T02:48:50.696Z,15.07
2022-10-22T02:51:17.082Z,15.01
2022-10-22T02:53:43.416Z,15.01
2022-10-22T02:56:09.954Z,14.94
2022-10-22T02:58:36.328Z,14.85
2022-10-22T03:01:02.790Z,14.86
2022-10-22T03:03:29.220Z,14.82
2022-10-22T03:05:55.610Z,14.73
2022-10-22T03:08:21.956Z,14.68
2022-10-22T03:10:48.312Z,14.72
2022-10-22T03:13:14.702Z,14.59
2022-10-22T03:15:41.140Z,14.64
2022-10-22T03:18:07.716Z,14.64
2022-10-22T03:20:34.143Z,14.64
2022-10-22T03:23:02.126Z,14.61
2022-10-22T03:25:31.014Z,14.61
2022-10-22T03:28:05.241Z,14.59
2022-10-22T03:30:32.275Z,14.69
2022-10-22T03:32:58.821Z,14.70
2022-10-22T03:35:25.461Z,14.81
2022-10-22T03:37:52.110Z,14.88
2022-10-22T03:40:19.085Z,14.92
2022-10-22T03:42:45.501Z,14.99
2022-10-22T03:45:12.117Z,15.08
2022-10-22T03:47:38.918Z,15.15
2022-10-22T03:50:08.787Z,15.19
2022-10-22T03:52:37.985Z,15.33
2022-10-22T03:55:05.371Z,15.34
2022-10-22T03:57:31.852Z,15.43
2022-10-22T03:59:58.270Z,15.47
2022-10-22T04:02:24.681Z,15.58
2022-10-22T04:04:51.082Z,15.61
2022-10-22T04:07:17.578Z,15.69
2022-10-22T04:09:43.942Z,15.68
2022-10-22T04:12:10.375Z,15.76
2022-10-22T04:14:36.802Z,15.77
2022-10-22T04:17:03.330Z,15.85
2022-10-22T04:19:29.714Z,15.87
2022-10-22T04:21:58.867Z,15.91
2022-10-22T04:24:26.028Z,15.94
2022-10-22T04:26:55.919Z,15.93
2022-10-22T04:29:26.004Z,15.97
2022-10-22T04:31:55.230Z,15.95
2022-10-22T04:34:21.877Z,16.00
2022-10-22T04:36:48.267Z,15.98
2022-10-22T04:39:15.138Z,15.98
2022-10-22T04:41:41.554Z,16.01
2022-10-22T04:44:11.119Z,16.04
2022-10-22T04:46:42.462Z,16.04
2022-10-22T04:49:09.181Z,16.04
2022-10-22T04:51:35.626Z,15.98
2022-10-22T04:54:02.549Z,15.98
2022-10-22T04:56:30.919Z,16.03
2022-10-22T04:58:59.815Z,16.03
2022-10-22T05:01:31.947Z,15.95
2022-10-22T05:04:00.469Z,16.02
2022-10-22T05:06:28.793Z,15.99
2022-10-22T05:08:57.829Z,16.00
2022-10-22T05:11:30.106Z,15.96
2022-10-22T05:13:58.119Z,15.98
2022-10-22T05:16:25.685Z,15.96
2022-10-22T05:18:52.213Z,15.95
2022-10-22T05:21:20.235Z,15.93
2022-10-22T05:23:48.865Z,15.91
2022-10-22T05:26:19.070Z,15.90
2022-10-22T05:28:46.302Z,16.02
2022-10-22T05:31:13.888Z,15.90
2022-10-22T05:33:41.270Z,15.86
2022-10-22T05:36:10.922Z,15.81
2022-10-22T05:38:37.609Z,15.74
2022-10-22T05:41:09.973Z,15.75
2022-10-22T05:43:37.767Z,15.72
2022-10-22T05:46:09.000Z,15.65
2022-10-22T05:48:36.188Z,15.64
2022-10-22T05:51:05.466Z,15.63
2022-10-22T05:53:36.297Z,15.62
2022-10-22T05:56:04.567Z,15.59
2022-10-22T05:58:31.747Z,15.57
2022-10-22T06:01:17.563Z,15.59
2022-10-22T06:03:44.520Z,15.51
2022-10-22T06:06:24.410Z,15.50
2022-10-22T06:08:52.875Z,15.46
2022-10-22T06:11:21.954Z,15.46
2022-10-22T06:13:49.651Z,15.42
2022-10-22T06:16:16.435Z,15.43
2022-10-22T06:18:42.883Z,15.38
2022-10-22T06:21:15.115Z,15.39
2022-10-22T06:23:43.686Z,15.36
2022-10-22T06:26:11.039Z,15.35
2022-10-22T06:28:40.379Z,15.30
2022-10-22T06:31:06.900Z,15.29
2022-10-22T06:33:34.371Z,15.28
2022-10-22T06:36:11.429Z,15.31
2022-10-22T06:38:38.282Z,15.28
2022-10-22T06:41:12.433Z,15.29
2022-10-22T06:43:39.477Z,15.27
2022-10-22T06:46:09.623Z,15.28
2022-10-22T06:48:37.912Z,15.27
2022-10-22T06:51:07.349Z,15.24
2022-10-22T06:53:34.149Z,15.25
2022-10-22T06:56:06.389Z,15.23
2022-10-22T06:58:32.782Z,15.22
2022-10-22T07:01:11.174Z,15.30
2022-10-22T07:03:39.413Z,15.28
2022-10-22T07:06:08.834Z,15.29
2022-10-22T07:08:36.079Z,15.32
2022-10-22T07:11:11.589Z,15.30
2022-10-22T07:13:38.605Z,15.32
2022-10-22T07:16:06.370Z,15.34
2022-10-22T07:18:33.350Z,15.34
2022-10-22T07:21:00.105Z,15.40
2022-10-22T07:23:27.302Z,15.40
2022-10-22T07:25:53.794Z,15.41
2022-10-22T07:28:20.401Z,15.45
2022-10-22T07:30:47.590Z,15.41
2022-10-22T07:33:14.789Z,15.54
2022-10-22T07:35:41.790Z,15.54
2022-10-22T07:38:09.323Z,15.57
2022-10-22T07:40:36.283Z,15.64
2022-10-22T07:43:03.343Z,15.65
2022-10-22T07:45:29.974Z,15.70
2022-10-22T07:47:56.714Z,15.69
2022-10-22T07:50:23.196Z,15.71
2022-10-22T07:52:49.699Z,15.73
2022-10-22T07:55:16.207Z,15.69
2022-10-22T07:57:42.819Z,15.77
2022-10-22T08:00:10.026Z,15.78
2022-10-22T08:02:36.448Z,15.81
2022-10-22T08:05:02.877Z,15.84
2022-10-22T08:07:29.531Z,15.87
2022-10-22T08:09:56.082Z,15.81
2022-10-22T08:12:22.535Z,15.92
2022-10-22T08:14:49.272Z,15.82
2022-10-22T08:17:16.083Z,15.99
2022-10-22T08:19:42.461Z,15.94
2022-10-22T08:22:09.035Z,16.03
2022-10-22T08:24:35.556Z,16.06
2022-10-22T08:27:01.918Z,16.14
2022-10-22T08:29:28.476Z,16.18
2022-10-22T08:31:57.930Z,16.19
2022-10-22T08:34:24.497Z,16.31
2022-10-22T08:36:50.919Z,16.32
2022-10-22T08:39:17.368Z,16.49
2022-10-22T08:42:04.131Z,16.62
2022-10-22T08:45:14.977Z,16.86
2022-10-22T08:47:53.155Z,17.06
2022-10-22T08:50:26.930Z,17.27
2022-10-22T08:53:00.148Z,17.40
2022-10-22T08:55:26.634Z,17.63
2022-10-22T08:58:20.263Z,17.89
2022-10-22T09:00:51.482Z,17.95
2022-10-22T09:03:27.965Z,18.15
2022-10-22T09:06:08.479Z,18.28
2022-10-22T09:08:36.227Z,18.35
2022-10-22T09:11:13.971Z,18.44
2022-10-22T09:13:42.480Z,18.53
2022-10-22T09:16:18.109Z,18.65
2022-10-22T09:18:44.399Z,18.76
2022-10-22T09:21:34.418Z,18.95
2022-10-22T09:24:04.635Z,19.17
2022-10-22T09:26:36.729Z,19.26
2022-10-22T09:29:04.381Z,19.50
2022-10-22T09:31:32.997Z,19.74
2022-10-22T09:34:05.870Z,19.96
2022-10-22T09:36:32.479Z,20.18
2022-10-22T09:38:59.448Z,20.36
2022-10-22T09:41:32.203Z,20.61
2022-10-22T09:43:59.393Z,20.80
2022-10-22T09:46:29.784Z,20.96
2022-10-22T09:49:10.486Z,21.19
2022-10-22T09:51:56.914Z,21.46
2022-10-22T09:54:26.261Z,21.57
2022-10-22T09:57:05.489Z,21.79
2022-10-22T09:59:37.219Z,21.88
2022-10-22T10:02:26.614Z,21.97
2022-10-22T10:05:03.541Z,22.05
2022-10-22T10:07:35.222Z,22.18
2022-10-22T10:10:02.190Z,22.13
2022-10-22T10:12:48.632Z,22.31
2022-10-22T10:15:49.616Z,22.36
2022-10-22T10:18:32.871Z,22.45
2022-10-22T10:23:52.932Z,22.57
2022-10-22T10:26:47.611Z,22.80
2022-10-22T10:29:19.748Z,22.99
2022-10-22T10:32:13.445Z,23.20
2022-10-22T10:34:46.582Z,23.42
2022-10-22T10:37:24.923Z,23.63
2022-10-22T10:40:03.228Z,23.82
2022-10-22T10:42:57.302Z,24.06
2022-10-22T10:45:37.764Z,24.27
2022-10-22T10:48:28.838Z,24.54
2022-10-22T10:51:35.686Z,24.72
2022-10-22T10:54:35.340Z,24.87
2022-10-22T10:57:09.661Z,25.00
2022-10-22T11:00:13.964Z,25.08
2022-10-22T11:05:33.349Z,25.08
2022-10-22T11:08:04.514Z,25.06
2022-10-22T11:11:08.821Z,25.24
2022-10-22T11:13:48.369Z,25.18
2022-10-22T11:16:23.894Z,25.23
2022-10-22T11:19:50.263Z,25.29
2022-10-22T11:22:44.462Z,25.29
2022-10-22T11:25:29.133Z,25.13
2022-10-22T11:28:11.122Z,24.99
2022-10-22T11:30:40.856Z,24.66
2022-10-22T11:33:12.945Z,24.52
2022-10-22T11:35:42.618Z,24.41
2022-10-22T11:38:14.337Z,24.14
2022-10-22T11:41:02.358Z,24.04
2022-10-22T11:43:32.545Z,23.79
2022-10-22T11:46:15.869Z,23.74
2022-10-22T11:48:42.618Z,23.64
2022-10-22T11:51:34.239Z,23.77
2022-10-22T11:54:03.601Z,23.73
2022-10-22T11:56:38.573Z,23.94
2022-10-22T11:59:28.590Z,24.14
2022-10-22T12:01:55.577Z,24.54
2022-10-22T12:04:23.548Z,24.50
2022-10-22T12:07:03.276Z,24.65
2022-10-22T12:09:32.857Z,24.68
2022-10-22T12:12:15.384Z,24.99
2022-10-22T12:14:57.307Z,24.97
2022-10-22T12:17:25.598Z,25.06
2022-10-22T12:20:02.765Z,25.19
2022-10-22T12:22:32.499Z,25.12
2022-10-22T12:25:06.039Z,25.13
2022-10-22T12:27:40.823Z,25.00
2022-10-22T12:30:24.589Z,24.87
2022-10-22T12:33:00.529Z,24.64
2022-10-22T12:35:29.672Z,24.44
2022-10-22T12:38:00.338Z,24.26
2022-10-22T12:40:28.248Z,24.11
2022-10-22T12:43:14.280Z,24.05
2022-10-22T12:45:43.473Z,23.75
2022-10-22T12:48:19.762Z,23.66
2022-10-22T12:50:51.110Z,23.41
2022-10-22T12:53:23.003Z,23.33
2022-10-22T12:55:51.852Z,23.17
2022-10-22T12:58:21.342Z,23.11
2022-10-22T13:00:48.474Z,23.02
2022-10-22T13:03:30.280Z,22.97
2022-10-22T13:05:56.848Z,22.82
2022-10-22T13:08:28.295Z,22.76
2022-10-22T13:10:55.920Z,22.71
2022-10-22T13:13:40.811Z,22.70
2022-10-22T13:16:24.700Z,22.62
2022-10-22T13:18:52.613Z,22.60
2022-10-22T13:21:33.549Z,22.67
2022-10-22T13:24:02.647Z,22.64
2022-10-22T13:26:34.788Z,22.68
2022-10-22T13:29:02.982Z,22.67
2022-10-22T13:31:33.566Z,22.66
2022-10-22T13:34:09.803Z,22.72
2022-10-22T13:36:38.526Z,22.82
2022-10-22T13:39:07.917Z,22.96
2022-10-22T13:44:06.397Z,23.01
2022-10-22T13:46:32.897Z,22.98
2022-10-22T13:49:00.321Z,22.95
2022-10-22T13:51:34.974Z,22.78
2022-10-22T13:54:03.407Z,22.57
2022-10-22T13:56:30.061Z,22.53
2022-10-22T13:58:56.475Z,22.37
2022-10-22T14:01:25.836Z,22.30
2022-10-22T14:03:54.997Z,22.20
2022-10-22T14:06:22.559Z,22.09
2022-10-22T14:08:55.055Z,22.03
2022-10-22T14:11:21.605Z,21.86
2022-10-22T14:13:47.970Z,21.85
2022-10-22T14:16:20.397Z,21.76
2022-10-22T14:18:48.434Z,21.70
2022-10-22T14:21:16.918Z,21.72
2022-10-22T14:23:46.357Z,21.73
2022-10-22T14:26:23.037Z,21.77
2022-10-22T14:29:08.717Z,21.82
2022-10-22T14:31:38.038Z,21.96
2022-10-22T14:34:04.463Z,22.03
2022-10-22T14:36:31.008Z,22.15
2022-10-22T14:38:57.411Z,22.20
2022-10-22T14:41:28.247Z,22.22
2022-10-22T14:43:59.486Z,22.17
2022-10-22T14:46:25.846Z,22.02
2022-10-22T14:48:52.238Z,21.98
2022-10-22T14:51:20.887Z,21.78
2022-10-22T14:53:47.814Z,21.71
2022-10-22T14:56:17.350Z,21.67
2022-10-22T14:58:43.781Z,21.56
2022-10-22T15:01:10.609Z,21.47
2022-10-22T15:03:37.536Z,21.28
2022-10-22T15:06:05.263Z,21.28
2022-10-22T15:08:31.984Z,21.30
2022-10-22T15:11:06.516Z,21.28
2022-10-22T15:13:33.614Z,21.18
2022-10-22T15:16:00.154Z,21.06
2022-10-22T15:18:27.517Z,21.06
2022-10-22T15:21:02.234Z,20.90
2022-10-22T15:23:29.154Z,20.84
2022-10-22T15:25:56.453Z,20.69
2022-10-22T15:28:24.661Z,20.58
2022-10-22T15:30:58.829Z,20.56
2022-10-22T15:33:26.583Z,20.48
2022-10-22T15:35:53.072Z,20.38
2022-10-22T15:38:20.104Z,20.38
2022-10-22T15:40:46.676Z,20.25
2022-10-22T15:43:13.177Z,20.22
2022-10-22T15:45:39.630Z,20.14
2022-10-22T15:48:06.586Z,20.10
2022-10-22T15:50:37.761Z,20.06
2022-10-22T15:53:04.377Z,19.96
2022-10-22T15:55:31.655Z,19.90
2022-10-22T15:58:00.589Z,19.85
2022-10-22T16:00:29.983Z,19.74
2022-10-22T16:02:56.378Z,19.67
2022-10-22T16:05:22.797Z,19.69
2022-10-22T16:07:49.779Z,19.65
2022-10-22T16:10:16.175Z,19.56
2022-10-22T16:12:43.406Z,19.50
2022-10-22T16:15:10.737Z,19.39
2022-10-22T16:17:37.204Z,19.35
2022-10-22T16:20:03.933Z,19.30
2022-10-22T16:22:30.460Z,19.33
2022-10-22T16:24:56.823Z,19.28
2022-10-22T16:27:23.259Z,19.19
2022-10-22T16:29:49.684Z,19.12
2022-10-22T16:32:17.826Z,19.10
2022-10-22T16:34:44.246Z,19.06
2022-10-22T16:37:10.914Z,19.11
2022-10-22T16:39:37.942Z,19.04
2022-10-22T16:42:05.271Z,18.91
2022-10-22T16:44:33.935Z,19.00
2022-10-22T16:47:00.991Z,19.00
2022-10-22T16:49:27.387Z,19.00
2022-10-22T16:51:53.906Z,18.93
2022-10-22T16:54:21.716Z,18.94
2022-10-22T16:56:48.082Z,18.91
2022-10-22T16:59:14.678Z,18.90
2022-10-22T17:01:41.614Z,18.90
2022-10-22T17:04:08.892Z,18.84
2022-10-22T17:06:35.540Z,18.86
2022-10-22T17:09:02.864Z,18.82
2022-10-22T17:11:36.281Z,18.74
2022-10-22T17:14:04.619Z,18.63
2022-10-22T17:16:42.327Z,18.48
2022-10-22T17:19:19.209Z,18.16
2022-10-22T17:21:45.752Z,18.25
2022-10-22T17:24:17.215Z,18.08
2022-10-22T17:26:47.237Z,18.06
2022-10-22T17:29:24.711Z,17.61
2022-10-22T17:31:52.557Z,17.67
2022-10-22T17:34:18.951Z,17.78
2022-10-22T17:36:45.373Z,17.70
2022-10-22T17:39:16.439Z,17.65
2022-10-22T17:41:42.820Z,17.51
2022-10-22T17:44:12.152Z,17.52
2022-10-22T17:46:39.194Z,17.40
2022-10-22T17:49:13.254Z,17.32
2022-10-22T17:51:40.619Z,17.24
2022-10-22T17:54:09.813Z,17.22
2022-10-22T17:56:37.636Z,17.08
2022-10-22T17:59:04.412Z,17.05
2022-10-22T18:01:34.048Z,17.03
2022-10-22T18:04:06.823Z,16.96
2022-10-22T18:06:33.886Z,16.93
2022-10-22T18:09:03.982Z,16.84
2022-10-22T18:11:32.429Z,16.82
2022-10-22T18:13:59.132Z,16.78
2022-10-22T18:16:26.523Z,16.74
2022-10-22T18:18:54.964Z,16.70
2022-10-22T18:21:24.106Z,16.65
2022-10-22T18:23:50.516Z,16.62
2022-10-22T18:26:19.326Z,16.59
2022-10-22T18:28:50.714Z,16.54
2022-10-22T18:31:23.322Z,16.58
2022-10-22T18:33:50.280Z,16.51
2022-10-22T18:36:19.708Z,16.48
2022-10-22T18:38:54.449Z,16.52
2022-10-22T18:41:21.106Z,16.46
2022-10-22T18:43:55.779Z,16.48
2022-10-22T18:46:23.866Z,16.46
2022-10-22T18:48:52.847Z,16.47
2022-10-22T18:51:19.831Z,16.34
2022-10-22T18:53:59.207Z,16.47
2022-10-22T18:56:38.156Z,16.48
2022-10-22T18:59:04.505Z,16.49
2022-10-22T19:01:31.011Z,16.42
2022-10-22T19:03:57.617Z,16.48
2022-10-22T19:06:36.753Z,16.53
2022-10-22T19:09:04.485Z,16.56
2022-10-22T19:11:31.655Z,16.53
2022-10-22T19:13:58.360Z,16.54
2022-10-22T19:16:24.731Z,16.49
2022-10-22T19:18:52.106Z,16.57
2022-10-22T19:21:18.672Z,16.55
2022-10-22T19:26:18.748Z,16.51
2022-10-22T19:28:45.341Z,16.40
2022-10-22T19:31:20.774Z,16.46
2022-10-22T19:33:47.884Z,16.42
2022-10-22T19:36:16.969Z,16.38
2022-10-22T19:38:45.436Z,16.36
2022-10-22T19:41:14.648Z,16.33
2022-10-22T19:43:42.715Z,16.24
2022-10-22T19:46:09.983Z,16.30
2022-10-22T19:48:37.405Z,16.30
2022-10-22T19:51:08.411Z,16.35
2022-10-22T19:53:36.616Z,16.31
2022-10-22T19:56:05.764Z,16.32
2022-10-22T19:58:32.191Z,16.32
2022-10-22T20:01:07.305Z,16.34
2022-10-22T20:03:36.171Z,16.31
2022-10-22T20:06:05.837Z,16.33
2022-10-22T20:08:35.751Z,16.28
2022-10-22T20:11:02.696Z,16.29
2022-10-22T20:13:29.277Z,16.25
2022-10-22T20:15:59.046Z,16.22
2022-10-22T20:18:28.637Z,16.11
2022-10-22T20:20:55.055Z,16.10
2022-10-22T20:23:21.544Z,16.05
2022-10-22T20:25:48.163Z,16.04
2022-10-22T20:28:15.316Z,16.05
2022-10-22T20:30:45.516Z,15.99
2022-10-22T20:33:12.199Z,16.14
2022-10-22T20:35:39.156Z,15.93
2022-10-22T20:38:07.531Z,15.99
2022-10-22T20:40:34.083Z,15.88
2022-10-22T20:43:01.615Z,15.89
2022-10-22T20:45:28.085Z,15.90
2022-10-22T20:48:01.922Z,15.87
2022-10-22T20:50:31.291Z,15.83
2022-10-22T20:52:57.918Z,15.78
2022-10-22T20:55:24.604Z,15.72
2022-10-22T20:57:51.028Z,15.66
2022-10-22T21:00:17.553Z,15.68
2022-10-22T21:02:44.175Z,15.61
2022-10-22T21:05:10.715Z,15.62
2022-10-22T21:07:37.107Z,15.55
2022-10-22T21:10:04.381Z,15.46
2022-10-22T21:12:30.730Z,15.47
2022-10-22T21:14:57.144Z,15.48
2022-10-22T21:17:23.478Z,15.36
2022-10-22T21:19:49.846Z,15.34
2022-10-22T21:22:16.301Z,15.30
2022-10-22T21:24:42.653Z,15.23
2022-10-22T21:27:09.076Z,15.30
2022-10-22T21:29:35.618Z,15.26
2022-10-22T21:32:02.060Z,15.23
2022-10-22T21:34:28.505Z,15.16
2022-10-22T21:36:55.085Z,15.09
2022-10-22T21:39:21.577Z,15.01
2022-10-22T21:41:47.975Z,15.03
2022-10-22T21:44:14.359Z,15.04
2022-10-22T21:46:40.935Z,14.98
2022-10-22T21:49:07.321Z,15.00
2022-10-22T21:51:35.795Z,14.94
2022-10-22T21:54:02.225Z,14.95
2022-10-22T21:56:32.736Z,14.93
2022-10-22T21:59:00.081Z,14.90
2022-10-22T22:01:26.827Z,14.78
2022-10-22T22:03:53.429Z,14.80
2022-10-22T22:06:22.822Z,14.85
2022-10-22T22:08:52.025Z,14.78
2022-10-22T22:11:24.580Z,14.81
2022-10-22T22:13:52.417Z,14.83
2022-10-22T22:16:28.665Z,14.84
2022-10-22T22:18:57.734Z,14.73
2022-10-22T22:21:24.738Z,14.81
2022-10-22T22:23:51.253Z,14.74
2022-10-22T22:26:25.404Z,14.74
2022-10-22T22:28:55.750Z,14.69
2022-10-22T22:31:25.928Z,14.73
2022-10-22T22:33:58.286Z,14.65
2022-10-22T22:36:24.724Z,14.60
2022-10-22T22:38:55.160Z,14.61
2022-10-22T22:41:21.947Z,14.59
2022-10-22T22:43:48.366Z,14.64
2022-10-22T22:46:14.826Z,14.61
2022-10-22T22:48:41.221Z,14.61
2022-10-22T22:51:07.879Z,14.57
2022-10-22T22:53:35.060Z,14.58
2022-10-22T22:56:06.887Z,14.58
2022-10-22T22:58:33.808Z,14.47
2022-10-22T23:01:24.836Z,14.58
2022-10-22T23:03:58.310Z,14.54
2022-10-22T23:06:26.630Z,14.53
2022-10-22T23:08:54.169Z,14.48
2022-10-22T23:11:21.836Z,14.48
2022-10-22T23:13:55.772Z,14.51
2022-10-22T23:16:24.798Z,14.50
2022-10-22T23:18:53.789Z,14.49
2022-10-22T23:21:24.224Z,14.47
2022-10-22T23:23:54.575Z,14.42
2022-10-22T23:26:23.590Z,14.44
2022-10-22T23:28:50.593Z,14.38
2022-10-22T23:31:19.999Z,14.40
2022-10-22T23:33:46.680Z,14.39
2022-10-22T23:36:14.099Z,14.41
2022-10-22T23:38:41.332Z,14.39
2022-10-22T23:41:08.358Z,14.38
2022-10-22T23:43:36.192Z,14.39
2022-10-22T23:46:06.695Z,14.32
2022-10-22T23:48:33.636Z,14.38
2022-10-22T23:51:05.460Z,14.38
2022-10-22T23:53:31.853Z,14.32
2022-10-22T23:55:58.528Z,14.32
2022-10-22T23:58:24.889Z,14.34
